createdAt,value
2019-02-14T00:03:59.371Z,10.07
2019-02-14T00:09:01.476Z,9.93
2019-02-14T00:14:03.532Z,8.90
2019-02-14T00:19:05.608Z,8.97
2019-02-14T00:24:07.756Z,7.40
2019-02-14T00:29:09.868Z,8.70
2019-02-14T00:34:12.022Z,7.33
2019-02-14T00:39:14.099Z,7.63
2019-02-14T00:44:16.153Z,7.27
2019-02-14T00:49:18.297Z,7.60
2019-02-14T00:54:20.329Z,7.07
2019-02-14T00:59:22.404Z,7.63
2019-02-14T01:04:24.461Z,7.97
2019-02-14T01:09:27.865Z,7.90
2019-02-14T01:14:30.093Z,7.53
2019-02-14T01:19:32.154Z,8.33
2019-02-14T01:24:34.248Z,7.37
2019-02-14T01:29:36.292Z,7.70
2019-02-14T01:34:38.422Z,7.50
2019-02-14T01:39:40.612Z,7.43
2019-02-14T01:44:42.678Z,7.60
2019-02-14T01:49:44.842Z,8.00
2019-02-14T01:54:49.076Z,7.70
2019-02-14T01:59:51.188Z,8.63
2019-02-14T02:04:53.304Z,7.83
2019-02-14T02:09:55.420Z,7.33
2019-02-14T02:14:57.483Z,7.33
2019-02-14T02:19:59.550Z,7.13
2019-02-14T02:25:02.069Z,7.37
2019-02-14T02:30:19.186Z,7.53
2019-02-14T02:35:21.250Z,8.47
2019-02-14T02:40:23.423Z,8.53
2019-02-14T02:45:25.563Z,8.17
2019-02-14T02:50:27.617Z,8.10
2019-02-14T02:55:29.723Z,8.30
2019-02-14T03:00:31.812Z,7.00
2019-02-14T03:05:33.901Z,7.60
2019-02-14T03:10:35.997Z,8.10
2019-02-14T03:15:38.138Z,7.50
2019-02-14T03:20:40.222Z,8.27
2019-02-14T03:25:42.317Z,8.13
2019-02-14T03:30:44.330Z,7.87
2019-02-14T03:35:46.379Z,8.17
2019-02-14T03:40:48.469Z,8.20
2019-02-14T03:45:50.527Z,7.70
2019-02-14T03:50:52.703Z,8.10
2019-02-14T03:55:54.801Z,8.03
2019-02-14T04:00:58.337Z,7.10
2019-02-14T04:06:01.634Z,7.77
2019-02-14T04:11:03.752Z,7.97
2019-02-14T04:16:05.817Z,7.13
2019-02-14T04:21:07.932Z,7.50
2019-02-14T04:26:10.023Z,7.83
2019-02-14T04:31:12.065Z,8.00
2019-02-14T04:36:14.160Z,7.40
2019-02-14T04:41:16.216Z,7.47
2019-02-14T04:46:18.306Z,7.67
2019-02-14T04:51:22.196Z,8.07
2019-02-14T04:56:24.226Z,8.00
2019-02-14T05:01:26.290Z,8.03
2019-02-14T05:06:28.238Z,8.80
2019-02-14T05:11:30.369Z,8.47
2019-02-14T05:16:32.437Z,8.40
2019-02-14T05:21:34.474Z,9.03
2019-02-14T05:26:36.634Z,8.30
2019-02-14T05:31:38.733Z,8.93
2019-02-14T05:36:40.774Z,8.47
2019-02-14T05:41:42.881Z,8.97
2019-02-14T05:46:44.980Z,8.67
2019-02-14T05:51:47.097Z,7.43
2019-02-14T05:57:08.782Z,8.30
2019-02-14T06:02:10.884Z,8.70
2019-02-14T06:07:12.977Z,8.13
2019-02-14T06:12:15.026Z,7.77
2019-02-14T06:17:17.133Z,8.00
2019-02-14T06:22:19.207Z,7.77
2019-02-14T06:27:21.284Z,8.30
2019-02-14T06:32:23.363Z,8.60
2019-02-14T06:37:25.479Z,7.27
2019-02-14T06:42:27.553Z,7.90
2019-02-14T06:47:29.610Z,8.47
2019-02-14T06:52:33.488Z,7.77
2019-02-14T06:57:35.558Z,7.17
2019-02-14T07:02:40.509Z,7.57
2019-02-14T07:07:42.603Z,7.77
2019-02-14T07:12:44.665Z,7.83
2019-02-14T07:17:46.758Z,6.83
2019-02-14T07:22:48.843Z,7.90
2019-02-14T07:27:51.040Z,7.10
2019-02-14T07:32:53.113Z,7.60
2019-02-14T07:37:55.290Z,7.97
2019-02-14T07:42:57.389Z,7.07
2019-02-14T07:47:59.470Z,7.70
2019-02-14T07:53:23.890Z,7.13
2019-02-14T07:58:28.077Z,6.60
2019-02-14T08:03:32.091Z,7.03
2019-02-14T08:08:34.325Z,7.13
2019-02-14T08:13:36.518Z,6.43
2019-02-14T08:18:38.741Z,6.63
2019-02-14T08:23:40.895Z,6.60
2019-02-14T08:28:42.949Z,6.70
2019-02-14T08:33:45.140Z,7.77
2019-02-14T08:38:47.288Z,7.17
2019-02-14T08:43:49.370Z,8.07
2019-02-14T08:48:51.418Z,8.10
2019-02-14T08:53:55.393Z,8.63
2019-02-14T08:58:57.565Z,10.17
2019-02-14T09:03:59.644Z,9.37
2019-02-14T09:09:01.785Z,9.60
2019-02-14T09:14:03.909Z,8.60
2019-02-14T09:19:05.996Z,8.50
2019-02-14T09:24:08.038Z,8.07
2019-02-14T09:29:12.713Z,8.03
2019-02-14T09:34:14.229Z,8.33
2019-02-14T09:39:16.635Z,9.83
2019-02-14T09:44:18.719Z,11.63
2019-02-14T09:49:20.822Z,9.33
2019-02-14T09:54:22.933Z,8.83
2019-02-14T09:59:25.033Z,8.07
2019-02-14T10:04:27.149Z,7.50
2019-02-14T10:09:29.245Z,7.20
2019-02-14T10:14:31.289Z,7.27
2019-02-14T10:19:33.430Z,6.43
2019-02-14T10:24:35.518Z,6.47
2019-02-14T10:29:37.556Z,6.70
2019-02-14T10:34:39.697Z,7.17
2019-02-14T10:39:41.753Z,7.40
2019-02-14T10:44:44.038Z,8.57
2019-02-14T10:49:46.194Z,7.83
2019-02-14T10:54:49.130Z,9.37
2019-02-14T10:59:51.193Z,6.00
2019-02-14T11:04:53.265Z,6.37
2019-02-14T11:09:57.224Z,7.27
2019-02-14T11:14:59.412Z,7.20
2019-02-14T11:20:01.537Z,8.37
2019-02-14T11:25:03.996Z,7.60
2019-02-14T11:30:07.460Z,6.90
2019-02-14T11:35:09.546Z,6.43
2019-02-14T11:40:12.012Z,7.07
2019-02-14T11:45:15.255Z,8.40
2019-02-14T11:50:17.325Z,7.60
2019-02-14T11:55:19.366Z,7.63
2019-02-14T12:00:22.493Z,7.27
2019-02-14T12:05:26.181Z,6.87
2019-02-14T12:10:28.365Z,6.80
2019-02-14T12:15:30.480Z,6.30
2019-02-14T12:20:32.630Z,6.47
2019-02-14T12:25:36.510Z,5.80
2019-02-14T12:30:38.584Z,6.20
2019-02-14T12:35:40.684Z,5.30
2019-02-14T12:40:43.060Z,5.83
2019-02-14T12:45:45.153Z,3.97
2019-02-14T12:50:47.422Z,5.30
2019-02-14T12:55:50.092Z,4.57
2019-02-14T13:00:52.259Z,4.83
2019-02-14T13:05:54.407Z,5.77
2019-02-14T13:10:56.563Z,4.60
2019-02-14T13:15:58.633Z,4.47
2019-02-14T13:21:00.682Z,4.97
2019-02-14T13:26:02.784Z,4.57
2019-02-14T13:31:06.749Z,4.33
2019-02-14T13:36:08.771Z,5.07
2019-02-14T13:41:10.881Z,5.13
2019-02-14T13:46:13.036Z,5.80
2019-02-14T13:51:15.136Z,4.93
2019-02-14T13:56:17.253Z,4.83
2019-02-14T14:01:19.347Z,4.67
2019-02-14T14:06:21.436Z,4.93
2019-02-14T14:11:23.561Z,5.53
2019-02-14T14:16:25.679Z,5.27
2019-02-14T14:21:29.640Z,5.30
2019-02-14T14:26:31.779Z,6.03
2019-02-14T14:31:33.864Z,5.40
2019-02-14T14:36:35.956Z,5.20
2019-02-14T14:41:38.028Z,5.03
2019-02-14T14:46:47.249Z,5.03
2019-02-14T14:51:49.322Z,4.90
2019-02-14T14:56:51.392Z,4.63
2019-02-14T15:01:53.449Z,4.93
2019-02-14T15:06:55.507Z,5.20
2019-02-14T15:11:57.707Z,5.27
2019-02-14T15:16:59.767Z,5.40
2019-02-14T15:22:01.879Z,4.87
2019-02-14T15:27:03.942Z,6.03
2019-02-14T15:32:06.036Z,5.87
2019-02-14T15:37:08.128Z,4.90
2019-02-14T15:42:10.203Z,5.20
2019-02-14T15:47:12.309Z,4.97
2019-02-14T15:52:14.391Z,4.87
2019-02-14T15:57:18.211Z,4.53
2019-02-14T16:02:20.359Z,5.13
2019-02-14T16:07:24.823Z,5.30
2019-02-14T16:12:26.950Z,5.30
2019-02-14T16:17:29.063Z,4.80
2019-02-14T16:22:31.106Z,5.07
2019-02-14T16:27:33.245Z,4.83
2019-02-14T16:32:35.398Z,5.23
2019-02-14T16:37:37.639Z,5.00
2019-02-14T16:42:39.762Z,5.20
2019-02-14T16:47:41.860Z,5.20
2019-02-14T16:52:43.920Z,5.03
2019-02-14T16:57:46.143Z,5.60
2019-02-14T17:02:50.198Z,5.40
2019-02-14T17:07:52.258Z,5.10
2019-02-14T17:12:54.363Z,4.97
2019-02-14T17:18:05.295Z,5.47
2019-02-14T17:23:03.779Z,5.23
2019-02-14T17:28:05.857Z,5.70
2019-02-14T17:33:07.967Z,6.80
2019-02-14T17:38:10.107Z,6.23
2019-02-14T17:43:12.188Z,5.90
2019-02-14T17:48:14.250Z,5.80
2019-02-14T17:53:16.375Z,6.20
2019-02-14T17:58:18.410Z,5.97
2019-02-14T18:03:20.508Z,6.60
2019-02-14T18:08:22.565Z,6.43
2019-02-14T18:13:24.762Z,5.73
2019-02-14T18:18:26.818Z,6.30
2019-02-14T18:23:28.931Z,5.87
2019-02-14T18:28:30.973Z,6.47
2019-02-14T18:33:33.046Z,5.90
2019-02-14T18:38:35.129Z,6.13
2019-02-14T18:43:37.272Z,6.17
2019-02-14T18:48:39.434Z,5.80
2019-02-14T18:53:41.518Z,6.37
2019-02-14T18:58:43.566Z,6.20
2019-02-14T19:03:45.727Z,5.40
2019-02-14T19:08:50.224Z,8.23
2019-02-14T19:13:52.317Z,5.70
2019-02-14T19:18:54.349Z,6.77
2019-02-14T19:23:56.451Z,6.33
2019-02-14T19:28:58.564Z,6.83
2019-02-14T19:34:00.641Z,6.50
2019-02-14T19:39:04.332Z,6.43
2019-02-14T19:44:06.534Z,6.63
2019-02-14T19:49:08.602Z,6.20
2019-02-14T19:54:10.715Z,8.30
2019-02-14T19:59:12.843Z,9.93
2019-02-14T20:04:14.941Z,9.83
2019-02-14T20:09:17.052Z,8.47
2019-02-14T20:14:19.190Z,8.67
2019-02-14T20:19:21.274Z,9.00
2019-02-14T20:24:23.419Z,8.33
2019-02-14T20:29:25.493Z,7.93
2019-02-14T20:34:27.549Z,8.07
2019-02-14T20:39:29.652Z,7.53
2019-02-14T20:44:31.727Z,7.80
2019-02-14T20:49:33.816Z,7.73
2019-02-14T20:54:36.137Z,7.13
2019-02-14T20:59:38.204Z,7.13
2019-02-14T21:04:40.297Z,7.80
2019-02-14T21:09:42.354Z,7.63
2019-02-14T21:14:44.350Z,7.57
2019-02-14T21:19:46.436Z,7.47
2019-02-14T21:24:48.513Z,7.87
2019-02-14T21:29:50.665Z,7.57
2019-02-14T21:34:52.746Z,7.83
2019-02-14T21:39:54.826Z,8.20
2019-02-14T21:44:56.921Z,7.77
2019-02-14T21:49:59.057Z,7.90
2019-02-14T21:55:01.191Z,7.77
2019-02-14T22:00:04.661Z,6.80
2019-02-14T22:05:07.741Z,7.47
2019-02-14T22:10:10.353Z,7.27
2019-02-14T22:15:15.226Z,7.83
2019-02-14T22:20:17.433Z,7.23
2019-02-14T22:25:19.498Z,6.93
2019-02-14T22:30:21.573Z,7.27
2019-02-14T22:35:23.622Z,7.13
2019-02-14T22:40:25.746Z,8.30
2019-02-14T22:45:27.861Z,7.77
2019-02-14T22:50:29.945Z,7.00
2019-02-14T22:55:32.032Z,7.47
2019-02-14T23:00:38.085Z,7.40
2019-02-14T23:05:40.133Z,6.80
2019-02-14T23:10:42.215Z,6.60
2019-02-14T23:15:44.321Z,6.73
2019-02-14T23:20:48.776Z,6.33
2019-02-14T23:25:50.806Z,6.10
2019-02-14T23:30:52.857Z,5.53
2019-02-14T23:35:54.980Z,5.67
2019-02-14T23:40:57.045Z,6.17
2019-02-14T23:45:59.097Z,5.97
2019-02-14T23:51:01.163Z,6.27
2019-02-14T23:56:03.192Z,5.23
